Time;durP1;ratioP1;P1;durP2;ratioP2;P2;SDS_P1;SDS_P2;PMS_P1;PMS_P2;Temp;Humidity;BMP_temperature;BMP_pressure;BME280_temperature;BME280_humidity;BME280_pressure;Samples;Min_cycle;Max_cycle;Signal;HPM_P1;HPM_P2
2022/08/11 00:01:22;;;;;;;8.20;3.10;;;;;;;23.29;48.60;101809.03;5038177;28;20062;-72
2022/08/11 00:04:15;;;;;;;5.00;2.40;;;;;;;23.27;48.65;101811.50;5052111;28;20159;-74
2022/08/11 00:06:45;;;;;;;7.45;2.80;;;;;;;23.25;48.31;101808.34;5042600;28;20129;-74
2022/08/11 00:09:17;;;;;;;5.65;2.30;;;;;;;23.20;48.46;101805.28;5048113;28;20055;-74
2022/08/11 00:11:52;;;;;;;4.90;2.50;;;;;;;23.16;49.04;101805.44;5046509;28;20048;-75
2022/08/11 00:14:32;;;;;;;5.38;2.50;;;;;;;23.13;49.41;101797.88;5048534;28;20052;-73
2022/08/11 00:17:07;;;;;;;9.00;2.70;;;;;;;23.13;47.98;101799.91;5040430;28;20052;-74
2022/08/11 00:19:38;;;;;;;4.85;2.67;;;;;;;23.08;48.74;101804.09;5042000;28;20057;-74
2022/08/11 00:22:26;;;;;;;7.32;2.50;;;;;;;23.05;49.61;101802.19;5043639;28;20052;-73
2022/08/11 00:24:53;;;;;;;7.22;2.53;;;;;;;23.02;49.35;101797.47;5050876;28;20056;-74
2022/08/11 00:27:34;;;;;;;11.87;2.57;;;;;;;23.00;49.27;101808.41;5044691;28;20133;-73
2022/08/11 00:30:01;;;;;;;5.45;2.67;;;;;;;22.93;50.53;101807.88;5040899;28;20731;-73
2022/08/11 00:32:29;;;;;;;4.03;2.88;;;;;;;22.88;50.43;101806.41;5042856;28;20049;-74
2022/08/11 00:34:58;;;;;;;7.97;2.70;;;;;;;22.83;50.62;101807.00;5047207;28;20052;-74
2022/08/11 00:37:48;;;;;;;5.85;2.67;;;;;;;22.75;51.99;101802.84;5046823;28;20107;-74
2022/08/11 00:40:35;;;;;;;7.25;2.72;;;;;;;22.66;51.60;101803.56;5045221;28;20059;-74
2022/08/11 00:43:21;;;;;;;6.07;2.70;;;;;;;22.59;52.54;101808.63;5039426;28;20052;-74
2022/08/11 00:46:07;;;;;;;5.68;2.45;;;;;;;22.51;53.75;101815.75;5043547;28;20049;-74
2022/08/11 00:49:10;;;;;;;6.15;2.97;;;;;;;22.45;54.88;101806.25;5047219;28;20281;-74
2022/08/11 00:51:54;;;;;;;6.03;2.25;;;;;;;22.33;55.33;101813.47;5041709;28;20536;-74
2022/08/11 00:54:49;;;;;;;8.15;3.00;;;;;;;22.30;55.19;101810.75;5045432;28;20592;-74
2022/08/11 00:57:50;;;;;;;11.68;3.13;;;;;;;22.23;57.42;101808.16;5047048;28;20052;-73
2022/08/11 01:00:22;;;;;;;7.47;2.72;;;;;;;22.14;56.45;101806.03;5008996;28;20052;-73
2022/08/11 01:03:23;;;;;;;7.22;3.08;;;;;;;22.10;57.80;101811.00;5041131;28;20040;-72
2022/08/11 01:06:12;;;;;;;6.03;2.50;;;;;;;22.03;57.18;101811.22;5048604;28;20053;-74
2022/08/11 01:09:00;;;;;;;7.35;2.88;;;;;;;21.99;56.74;101809.75;5046327;28;20052;-73
2022/08/11 01:11:55;;;;;;;7.75;2.88;;;;;;;21.89;58.75;101808.84;5044888;28;20843;-73
2022/08/11 01:14:24;;;;;;;7.90;2.67;;;;;;;21.84;58.75;101811.44;5045694;28;20134;-73
2022/08/11 01:17:44;;;;;;;4.68;2.60;;;;;;;21.76;59.93;101802.41;5043624;28;20052;-77
2022/08/11 01:20:42;;;;;;;12.07;2.92;;;;;;;21.71;59.04;101813.41;5044547;28;20047;-73
2022/08/11 01:23:40;;;;;;;5.35;2.80;;;;;;;21.67;59.37;101809.91;5043486;28;20136;-72
2022/08/11 01:26:37;;;;;;;8.05;2.67;;;;;;;21.59;60.31;101809.31;5045829;28;20055;-74
2022/08/11 01:29:26;;;;;;;5.97;2.90;;;;;;;21.58;59.76;101810.56;5052423;28;20047;-72
2022/08/11 01:32:17;;;;;;;5.38;2.50;;;;;;;21.56;59.19;101812.25;5050871;28;20052;-73
2022/08/11 01:35:02;;;;;;;5.20;2.88;;;;;;;21.53;59.74;101802.66;5053219;28;20052;-74
2022/08/11 01:38:04;;;;;;;5.05;2.75;;;;;;;21.46;60.83;101804.91;5069791;28;20183;-73
2022/08/11 01:41:01;;;;;;;9.05;2.72;;;;;;;21.44;60.97;101801.72;5070039;28;20641;-73
2022/08/11 01:47:06;;;;;;;6.63;2.53;;;;;;;21.29;61.36;101803.38;5059489;28;20041;-73
2022/08/11 01:49:55;;;;;;;5.72;2.60;;;;;;;21.26;61.53;101801.44;5064990;28;20053;-73
2022/08/11 01:52:47;;;;;;;7.88;2.67;;;;;;;21.21;62.52;101801.97;5062345;28;20041;-74
2022/08/11 01:55:28;;;;;;;8.00;2.75;;;;;;;21.16;63.34;101803.31;5067107;28;20052;-73
2022/08/11 01:58:19;;;;;;;7.53;2.75;;;;;;;21.15;63.22;101809.38;5057101;28;20131;-73
2022/08/11 02:01:27;;;;;;;9.10;3.15;;;;;;;21.08;64.53;101812.38;5067147;28;20080;-73
2022/08/11 02:04:17;;;;;;;7.40;2.75;;;;;;;21.04;63.04;101814.50;5068857;28;20667;-73
2022/08/11 02:06:56;;;;;;;8.88;2.90;;;;;;;21.04;63.97;101820.13;5062766;28;20056;-73
2022/08/11 02:09:41;;;;;;;4.15;2.70;;;;;;;21.00;63.86;101820.25;5068810;28;20065;-72
2022/08/11 02:12:43;;;;;;;6.63;2.80;;;;;;;20.95;64.48;101811.56;5063334;28;20394;-73
2022/08/11 02:15:33;;;;;;;6.53;2.55;;;;;;;20.91;65.20;101822.84;5064614;28;20060;-72
2022/08/11 02:23:38;;;;;;;12.57;4.90;;;;;;;20.89;65.60;101813.28;5070196;28;20045;-75
2022/08/11 02:24:50;;;;;;;8.55;2.60;;;;;;;20.80;66.58;101816.72;5058565;28;20063;-72
2022/08/11 02:27:24;;;;;;;6.90;3.00;;;;;;;20.75;65.62;101808.03;5065746;28;20461;-72
2022/08/11 02:30:09;;;;;;;8.13;2.80;;;;;;;20.76;64.79;101818.03;5060079;28;20055;-72
2022/08/11 02:35:41;;;;;;;5.13;2.78;;;;;;;20.69;66.03;101815.41;5068726;28;20050;-72
2022/08/11 02:38:32;;;;;;;7.45;3.25;;;;;;;20.65;66.03;101821.09;5065439;28;20094;-71
2022/08/11 02:44:27;;;;;;;9.80;3.10;;;;;;;20.60;66.74;101812.41;5062584;28;20498;-72
2022/08/11 02:47:29;;;;;;;7.78;3.13;;;;;;;20.60;66.99;101810.41;5063114;28;20041;-73
2022/08/11 02:50:20;;;;;;;9.63;3.33;;;;;;;20.60;67.24;101812.41;5062614;28;20063;-75
2022/08/11 02:53:01;;;;;;;11.50;3.22;;;;;;;20.56;66.87;101812.50;5061774;28;20059;-72
2022/08/11 02:55:56;;;;;;;6.03;3.15;;;;;;;20.56;67.41;101806.09;5063166;28;20052;-72
2022/08/11 02:58:35;;;;;;;11.35;3.00;;;;;;;20.54;67.03;101805.72;5062353;28;20061;-73
2022/08/11 03:01:11;;;;;;;7.63;3.17;;;;;;;20.51;66.93;101807.41;5069379;28;20136;-70
2022/08/11 03:03:50;;;;;;;7.40;3.30;;;;;;;20.47;67.63;101809.50;5064944;28;20049;-73
2022/08/11 03:06:28;;;;;;;10.55;2.83;;;;;;;20.43;67.82;101811.63;5067584;28;20052;-75
2022/08/11 03:09:05;;;;;;;14.23;4.07;;;;;;;20.41;68.18;101810.50;5072256;28;20465;-74
2022/08/11 03:18:01;;;;;;;9.15;3.17;;;;;;;20.24;67.38;101816.09;5065288;28;20045;-72
2022/08/11 03:20:37;;;;;;;8.82;3.00;;;;;;;20.20;67.70;101815.38;5051151;28;20049;-72
2022/08/11 03:23:16;;;;;;;14.90;3.70;;;;;;;20.16;69.60;101805.47;5081892;28;20442;-72
2022/08/11 03:26:00;;;;;;;10.23;2.90;;;;;;;20.16;69.24;101811.88;5066807;28;20501;-73
2022/08/11 03:28:50;;;;;;;8.10;3.47;;;;;;;20.12;70.09;101804.75;5065023;28;20531;-75
2022/08/11 03:31:32;;;;;;;10.70;3.75;;;;;;;20.12;69.24;101810.38;5060847;28;20455;-74
2022/08/11 03:34:37;;;;;;;8.60;3.20;;;;;;;20.10;67.68;101813.59;5062982;28;20416;-73
2022/08/11 03:37:47;;;;;;;7.13;2.90;;;;;;;20.08;69.58;101807.59;5013776;28;20045;-72
2022/08/11 03:40:02;;;;;;;8.52;3.90;;;;;;;20.05;69.77;101814.09;5064599;28;20052;-74
2022/08/11 03:42:41;;;;;;;9.48;3.45;;;;;;;19.99;70.69;101809.44;5063979;28;20048;-74
2022/08/11 03:45:16;;;;;;;8.00;3.28;;;;;;;19.92;70.43;101804.75;5064553;28;20608;-71
2022/08/11 03:48:04;;;;;;;7.97;3.30;;;;;;;19.87;70.48;101805.28;5064360;28;20048;-73
2022/08/11 03:50:52;;;;;;;8.73;3.35;;;;;;;19.86;70.56;101808.50;5059702;28;20143;-73
2022/08/11 03:53:48;;;;;;;13.10;3.17;;;;;;;19.86;71.07;101812.13;5060839;28;20505;-73
2022/08/11 03:56:50;;;;;;;6.65;3.00;;;;;;;19.87;71.93;101805.28;5070165;28;20049;-74
2022/08/11 03:59:19;;;;;;;7.25;3.50;;;;;;;19.85;71.25;101807.72;5064749;28;20420;-73
2022/08/11 04:02:13;;;;;;;9.52;3.05;;;;;;;19.80;71.97;101808.25;5062722;28;20055;-74
2022/08/11 04:05:06;;;;;;;11.60;3.53;;;;;;;19.76;72.49;101807.53;5056009;28;20048;-73
2022/08/11 04:08:00;;;;;;;7.25;3.38;;;;;;;19.74;73.33;101814.78;5068494;28;20048;-73
2022/08/11 04:11:04;;;;;;;12.63;3.00;;;;;;;19.72;73.34;101815.25;5061221;28;20045;-73
2022/08/11 04:17:21;;;;;;;9.57;3.95;;;;;;;19.63;74.37;101811.41;5066882;28;20072;-72
2022/08/11 04:19:52;;;;;;;7.93;3.88;;;;;;;19.61;74.08;101808.28;5064915;28;20044;-73
2022/08/11 04:23:02;;;;;;;10.50;4.38;;;;;;;19.58;75.30;101804.28;5066537;28;20131;-70
2022/08/11 04:25:29;;;;;;;;;;;;;;;19.59;75.31;101805.09;5049915;28;20056;-72
2022/08/11 04:28:25;;;;;;;9.40;3.80;;;;;;;19.53;74.93;101802.00;5065231;28;20007;-72
2022/08/11 04:31:04;;;;;;;8.73;3.60;;;;;;;19.51;74.33;101803.66;5046991;28;20091;-71
2022/08/11 04:33:35;;;;;;;10.63;4.00;;;;;;;19.52;73.77;101802.44;5060568;28;20037;-72
2022/08/11 04:36:13;;;;;;;9.20;3.65;;;;;;;19.52;73.80;101799.63;5058342;28;20110;-71
2022/08/11 04:39:04;;;;;;;9.63;3.58;;;;;;;19.55;72.29;101801.56;5066660;28;20048;-75
2022/08/11 04:45:10;;;;;;;6.82;3.28;;;;;;;19.64;71.74;101796.19;5060711;28;20043;-73
2022/08/11 05:03:50;;;;;;;10.35;3.85;;;;;;;19.78;68.93;101809.91;5067507;28;20076;-72
2022/08/11 05:06:19;;;;;;;9.93;4.15;;;;;;;19.83;68.12;101813.00;5070082;28;20052;-72
2022/08/11 05:09:22;;;;;;;10.70;3.72;;;;;;;19.85;69.48;101812.56;5066888;28;20055;-71
2022/08/11 05:12:05;;;;;;;11.77;3.85;;;;;;;19.91;68.46;101819.25;5048455;28;20140;-76
2022/08/11 05:35:02;;;;;;;11.40;4.13;;;;;;;20.43;66.54;101826.47;5065734;28;20530;-75
2022/08/11 05:37:28;;;;;;;15.32;5.03;;;;;;;20.51;66.21;101829.91;5059472;28;20054;-74
2022/08/11 05:57:37;;;;;;;19.05;5.75;;;;;;;21.00;63.56;101828.69;5073483;28;20052;-74
2022/08/11 06:00:17;;;;;;;15.02;5.40;;;;;;;21.09;63.26;101830.88;5070993;28;20059;-74
2022/08/11 06:02:50;;;;;;;14.82;5.38;;;;;;;21.14;62.80;101827.50;5069240;28;20055;-79
2022/08/11 06:05:17;;;;;;;16.00;5.00;;;;;;;21.20;62.92;101825.72;5063107;28;20051;-74
2022/08/11 06:07:48;;;;;;;15.13;4.97;;;;;;;21.27;62.15;101828.34;5073427;28;20044;-75
2022/08/11 06:10:34;;;;;;;12.77;5.03;;;;;;;21.30;62.43;101825.44;5060707;28;20135;-74
2022/08/11 06:13:06;;;;;;;12.80;4.80;;;;;;;21.38;62.15;101829.63;5066280;28;20160;-77
2022/08/11 06:15:42;;;;;;;11.35;4.53;;;;;;;21.42;61.99;101832.34;5061878;28;20584;-74
2022/08/11 06:18:11;;;;;;;13.88;4.78;;;;;;;21.49;61.47;101829.31;5067289;28;20049;-74
2022/08/11 06:20:49;;;;;;;15.45;4.50;;;;;;;21.53;61.27;101833.63;5064362;28;20141;-74
2022/08/11 06:23:22;;;;;;;12.40;4.72;;;;;;;21.59;61.04;101829.03;5059742;28;20041;-77
2022/08/11 06:25:52;;;;;;;11.52;4.75;;;;;;;21.66;61.12;101833.66;5069023;28;20048;-78
2022/08/11 06:28:34;;;;;;;16.90;4.70;;;;;;;21.74;61.40;101829.44;5061675;28;20139;-72
2022/08/11 06:31:10;;;;;;;16.77;5.20;;;;;;;21.80;60.48;101822.03;5066746;28;20052;-72
2022/08/11 06:33:54;;;;;;;15.80;4.60;;;;;;;21.86;60.68;101825.84;5068771;28;20048;-71
2022/08/11 06:36:34;;;;;;;14.70;5.15;;;;;;;21.94;60.18;101827.22;5069819;28;20550;-76
2022/08/11 06:39:17;;;;;;;16.92;5.35;;;;;;;22.02;60.20;101835.00;5062798;28;20425;-74
2022/08/11 06:42:01;;;;;;;14.75;5.13;;;;;;;22.11;59.68;101831.53;5063924;28;20802;-78
2022/08/11 06:44:57;;;;;;;15.25;4.35;;;;;;;22.22;59.39;101834.78;5066188;28;20525;-77
2022/08/11 06:47:24;;;;;;;;;;;;;;;22.32;59.53;101830.84;5067069;28;20583;-75
2022/08/11 06:52:41;;;;;;;18.33;4.68;;;;;;;22.51;58.31;101822.19;5064467;28;20610;-76
2022/08/11 06:55:10;;;;;;;12.27;4.93;;;;;;;22.63;57.90;101829.84;5064580;28;20055;-74
2022/08/11 07:00:46;;;;;;;13.52;4.18;;;;;;;22.82;57.49;101827.22;5068260;28;20045;-73
2022/08/11 07:03:18;;;;;;;12.88;4.20;;;;;;;22.93;57.53;101831.25;5064658;28;20043;-75
2022/08/11 07:05:44;;;;;;;16.35;4.55;;;;;;;;;;5068306;28;20109;-74
2022/08/11 07:16:54;;;;;;;13.43;4.38;;;;;;;23.47;55.55;101820.44;5068009;28;20040;-75
2022/08/11 07:30:53;;;;;;;14.27;4.97;;;;;;;24.06;53.18;101823.03;5061374;28;20062;-75
2022/08/11 07:33:28;;;;;;;15.30;4.40;;;;;;;24.20;52.37;101816.81;5063559;28;20048;-74
2022/08/11 07:36:16;;;;;;;14.30;4.38;;;;;;;24.34;51.61;101819.09;5051404;28;20055;-76
2022/08/11 07:38:49;;;;;;;10.35;4.35;;;;;;;24.45;51.38;101821.47;5064957;28;20049;-75
2022/08/11 07:41:19;;;;;;;12.35;4.38;;;;;;;24.59;51.09;101821.69;5065467;28;20059;-76
2022/08/11 07:43:51;;;;;;;11.82;4.10;;;;;;;24.69;50.31;101825.34;5058240;28;20067;-77
2022/08/11 07:54:40;;;;;;;8.65;4.03;;;;;;;25.09;48.73;101823.19;5067660;28;20393;-73
2022/08/11 08:19:59;;;;;;;8.25;3.45;;;;;;;26.00;45.96;101813.38;5061392;28;20048;-74
2022/08/11 08:22:26;;;;;;;10.30;3.85;;;;;;;26.14;45.58;101811.91;5065621;28;20482;-71
2022/08/11 08:25:14;;;;;;;11.15;4.03;;;;;;;26.26;45.29;101810.91;5061577;28;20439;-75
2022/08/11 08:27:42;;;;;;;13.55;3.92;;;;;;;26.38;45.15;101807.06;5061237;28;20138;-73
2022/08/11 08:32:59;;;;;;;9.85;4.00;;;;;;;26.61;43.92;101814.84;5060330;28;20062;-75
2022/08/11 08:35:29;;;;;;;8.55;3.67;;;;;;;26.73;44.02;101811.78;5065127;28;20094;-73
2022/08/11 08:37:59;;;;;;;14.20;4.18;;;;;;;26.85;43.87;101818.50;5067373;28;20083;-72
2022/08/11 08:40:26;;;;;;;11.93;4.22;;;;;;;26.94;43.56;101818.44;5058877;28;20058;-73
2022/08/11 08:42:57;;;;;;;10.55;3.60;;;;;;;27.02;42.46;101819.63;5056650;28;20048;-72
2022/08/11 08:45:27;;;;;;;10.60;4.00;;;;;;;27.17;42.96;101826.16;5066455;28;21385;-72
2022/08/11 08:48:03;;;;;;;10.20;3.75;;;;;;;27.25;43.01;101819.66;5060063;28;20082;-74
2022/08/11 08:53:28;;;;;;;15.20;3.95;;;;;;;27.56;41.85;101824.09;5071157;28;20053;-71
2022/08/11 08:55:57;;;;;;;9.93;3.78;;;;;;;27.65;42.04;101821.94;5066900;28;20117;-71
2022/08/11 08:58:24;;;;;;;18.25;4.10;;;;;;;27.77;41.91;101822.94;5060047;28;20055;-75
2022/08/11 09:00:55;;;;;;;9.13;3.72;;;;;;;27.87;40.91;101818.75;5061370;28;20055;-72
2022/08/11 09:03:22;;;;;;;11.18;4.22;;;;;;;27.95;40.42;101820.72;5066593;28;20048;-72
2022/08/11 09:06:09;;;;;;;15.30;4.07;;;;;;;28.03;39.59;101818.22;5060802;28;20059;-71
2022/08/11 09:08:36;;;;;;;10.88;3.92;;;;;;;28.22;40.24;101819.59;5062813;28;20059;-72
2022/08/11 09:13:51;;;;;;;9.45;3.45;;;;;;;28.48;39.21;101812.00;5063432;28;20127;-72
2022/08/11 09:16:32;;;;;;;10.40;4.10;;;;;;;28.58;39.22;101811.38;5064890;28;20076;-70
2022/08/11 09:18:59;;;;;;;16.02;4.72;;;;;;;28.68;38.79;101812.81;5067977;28;20045;-71
2022/08/11 09:21:26;;;;;;;11.65;3.67;;;;;;;28.79;37.76;101804.41;5055966;28;20056;-72
2022/08/11 09:27:06;;;;;;;9.27;3.67;;;;;;;28.94;37.07;101810.03;5064476;28;20124;-72
2022/08/11 09:29:34;;;;;;;11.85;4.18;;;;;;;28.99;37.19;101801.56;5058145;28;20390;-72
2022/08/11 09:32:01;;;;;;;16.63;4.28;;;;;;;29.16;36.88;101808.28;5063015;28;20497;-72
2022/08/11 09:34:28;;;;;;;23.50;4.63;;;;;;;29.31;36.46;101799.66;5064709;28;20147;-73
2022/08/11 09:45:50;;;;;;;12.35;3.88;;;;;;;30.03;34.06;101797.53;5053675;28;20098;-70
2022/08/11 09:48:22;;;;;;;7.90;3.45;;;;;;;30.02;33.79;101795.94;5069655;28;20056;-70
2022/08/11 09:50:51;;;;;;;11.43;4.03;;;;;;;30.13;33.59;101796.03;5070655;28;20347;-72
2022/08/11 09:53:22;;;;;;;9.52;3.35;;;;;;;30.25;32.09;101786.28;5068003;28;20125;-75
2022/08/11 09:59:07;;;;;;;9.38;3.33;;;;;;;30.33;31.55;101782.44;5064681;28;20052;-72
2022/08/11 10:01:41;;;;;;;6.85;3.08;;;;;;;30.49;30.96;101775.28;5066763;28;20051;-74
2022/08/11 10:04:19;;;;;;;10.10;2.72;;;;;;;30.73;30.54;101784.25;5062367;28;20045;-73
2022/08/11 10:07:04;;;;;;;7.43;3.38;;;;;;;30.97;30.11;101779.69;5062573;28;20048;-71
2022/08/11 10:09:45;;;;;;;7.00;3.38;;;;;;;31.15;29.07;101784.94;5065502;28;20040;-72
2022/08/11 10:12:25;;;;;;;8.27;3.00;;;;;;;31.25;28.62;101783.41;5060370;28;20049;-73
2022/08/11 10:18:41;;;;;;;9.38;3.97;;;;;;;31.45;28.66;101773.91;5065733;28;20144;-73
2022/08/11 10:20:35;;;;;;;9.00;3.28;;;;;;;31.41;27.42;101774.13;5078153;28;20054;-72
2022/08/11 10:28:35;;;;;;;13.00;4.40;;;;;;;31.66;28.91;101758.03;5062089;28;20428;-72
2022/08/11 10:34:28;;;;;;;9.13;3.95;;;;;;;31.83;28.19;101747.41;5065069;28;20044;-73
2022/08/11 10:37:01;;;;;;;13.75;3.70;;;;;;;31.99;28.04;101755.97;5061060;28;20063;-73
2022/08/11 10:39:28;;;;;;;14.50;3.70;;;;;;;32.09;27.92;101752.84;5067203;28;20556;-72
2022/08/11 10:47:54;;;;;;;8.27;3.60;;;;;;;32.38;26.74;101744.50;5060773;28;20044;-73
2022/08/11 10:58:48;;;;;;;8.50;3.60;;;;;;;32.60;26.29;101743.66;5034629;28;20060;-75
2022/08/11 11:01:23;;;;;;;10.63;3.20;;;;;;;32.66;26.27;101739.44;5036907;28;20372;-74
2022/08/11 11:03:53;;;;;;;10.38;3.33;;;;;;;32.72;26.25;101736.53;5034840;28;21188;-74
2022/08/11 11:06:50;;;;;;;5.93;3.28;;;;;;;32.74;24.98;101728.22;5033054;28;20045;-72
2022/08/11 11:09:31;;;;;;;11.75;3.30;;;;;;;32.96;25.84;101728.91;5039055;28;20051;-73
2022/08/11 11:17:55;;;;;;;10.25;3.33;;;;;;;33.22;25.31;101717.81;5044666;28;20052;-73
2022/08/11 11:20:25;;;;;;;6.95;2.80;;;;;;;33.28;25.29;101721.41;5038117;28;20147;-73
2022/08/11 11:23:18;;;;;;;7.25;3.22;;;;;;;33.34;25.21;101707.78;5034980;28;20048;-72
2022/08/11 11:26:15;;;;;;;5.55;3.00;;;;;;;33.50;25.12;101718.41;5042401;28;20044;-72
2022/08/11 11:29:23;;;;;;;7.85;3.50;;;;;;;33.68;24.43;101706.25;5026515;28;20044;-74
2022/08/11 11:31:57;;;;;;;7.60;3.80;;;;;;;33.67;23.52;101701.03;5044026;28;20800;-72
2022/08/11 11:34:43;;;;;;;12.63;3.53;;;;;;;33.74;23.90;101701.25;5044485;28;20564;-72
2022/08/11 11:37:21;;;;;;;5.57;3.63;;;;;;;33.94;24.42;101692.19;5043574;28;21227;-72
2022/08/11 11:39:48;;;;;;;7.32;3.53;;;;;;;34.15;24.57;101696.16;5038884;28;20143;-72
2022/08/11 11:42:17;;;;;;;7.93;3.63;;;;;;;34.24;24.18;101690.06;5039327;28;20056;-72
2022/08/11 11:44:45;;;;;;;8.35;3.35;;;;;;;34.26;24.02;101698.88;5039772;28;20136;-70
2022/08/11 11:47:14;;;;;;;8.32;3.28;;;;;;;34.23;23.92;101684.84;5040426;28;20118;-73
2022/08/11 11:49:42;;;;;;;7.10;3.65;;;;;;;34.21;24.16;101685.38;5044321;28;20583;-74
2022/08/11 11:52:18;;;;;;;9.88;3.63;;;;;;;34.13;23.33;101675.81;5043320;28;20766;-74
2022/08/11 11:54:49;;;;;;;8.32;3.22;;;;;;;34.37;24.38;101675.03;5043329;28;20048;-72
2022/08/11 12:03:01;;;;;;;4.68;2.80;;;;;;;34.62;23.64;101658.53;5040363;28;20170;-74
2022/08/11 12:05:32;;;;;;;11.18;3.40;;;;;;;34.73;23.82;101667.00;5042174;28;20827;-73
2022/08/11 12:08:16;;;;;;;4.18;3.00;;;;;;;34.91;23.37;101657.59;5038484;28;20601;-73
2022/08/11 12:13:43;;;;;;;6.78;3.58;;;;;;;35.08;23.32;101658.91;5041025;28;20299;-72
2022/08/11 12:16:13;;;;;;;13.27;3.65;;;;;;;35.22;23.08;101654.00;5041661;28;20048;-74
2022/08/11 12:19:00;;;;;;;5.68;3.22;;;;;;;35.29;23.20;101648.38;5042865;28;20056;-73
2022/08/11 12:21:32;;;;;;;7.05;3.20;;;;;;;35.27;23.09;101644.50;5042299;28;20052;-73
2022/08/11 12:29:35;;;;;;;6.93;3.20;;;;;;;35.36;22.44;101638.38;5041541;28;20068;-74
2022/08/11 12:32:10;;;;;;;7.50;3.00;;;;;;;35.31;22.23;101642.88;5040012;28;20130;-73
2022/08/11 12:34:39;;;;;;;9.93;3.53;;;;;;;35.47;22.62;101635.28;5042246;28;20057;-73
2022/08/11 12:37:11;;;;;;;10.43;3.80;;;;;;;35.68;22.68;101628.38;5040244;28;20054;-73
2022/08/11 12:46:33;;;;;;;6.05;3.30;;;;;;;35.66;21.96;101621.59;5023856;28;20048;-74
2022/08/11 12:52:07;;;;;;;7.95;3.65;;;;;;;35.97;22.42;101623.66;5041869;28;20141;-74
2022/08/11 12:55:01;;;;;;;5.78;3.15;;;;;;;36.10;21.62;101612.09;5046016;28;20155;-73
2022/08/11 13:05:54;;;;;;;9.90;3.63;;;;;;;36.54;22.38;101596.00;5037002;28;21851;-74
2022/08/11 13:08:26;;;;;;;9.38;3.55;;;;;;;36.65;21.51;101593.66;5039327;28;20058;-72
2022/08/11 13:13:44;;;;;;;9.38;3.40;;;;;;;36.78;21.90;101584.22;5042856;28;20048;-74
2022/08/11 13:16:26;;;;;;;13.13;3.28;;;;;;;36.78;21.54;101572.66;5041048;28;20571;-73
2022/08/11 13:18:55;;;;;;;8.43;3.28;;;;;;;36.85;21.63;101581.41;5045283;28;20084;-73
2022/08/11 13:21:22;;;;;;;5.65;3.00;;;;;;;36.95;21.86;101576.72;5040147;28;20048;-75
2022/08/11 13:23:53;;;;;;;7.82;3.35;;;;;;;37.03;21.65;101571.78;5042761;28;20158;-73
2022/08/11 13:26:29;;;;;;;7.72;3.20;;;;;;;37.09;21.42;101574.50;5040996;28;20136;-73
2022/08/11 13:29:25;;;;;;;8.18;3.40;;;;;;;37.05;20.90;101574.84;5046063;28;20803;-74
2022/08/11 13:31:58;;;;;;;5.70;3.20;;;;;;;37.01;21.06;101579.44;5039104;28;20048;-72
2022/08/11 13:34:29;;;;;;;7.00;3.28;;;;;;;37.11;21.05;101574.75;5040237;28;20048;-73
2022/08/11 13:36:59;;;;;;;9.77;3.35;;;;;;;36.99;21.06;101564.81;5043764;28;20048;-73
2022/08/11 13:39:30;;;;;;;10.13;4.20;;;;;;;37.04;20.53;101561.00;5044238;28;20063;-74
2022/08/11 13:41:59;;;;;;;11.00;3.58;;;;;;;37.09;20.64;101565.84;5042284;28;20202;-74
2022/08/11 13:44:28;;;;;;;6.30;3.15;;;;;;;37.15;20.10;101567.25;5046803;28;20105;-73
2022/08/11 13:46:59;;;;;;;8.93;4.15;;;;;;;37.11;20.10;101568.97;5046692;28;20050;-75
2022/08/11 13:49:28;;;;;;;8.93;3.30;;;;;;;37.14;20.01;101562.81;5046546;28;20056;-73
2022/08/11 13:51:56;;;;;;;11.00;3.10;;;;;;;36.97;19.84;101568.25;5047146;28;20052;-73
2022/08/11 13:54:28;;;;;;;10.05;3.65;;;;;;;36.93;20.00;101555.50;5044347;28;20049;-73
2022/08/11 13:57:00;;;;;;;6.55;2.80;;;;;;;36.96;20.08;101557.28;5042619;28;20057;-75
2022/08/11 13:59:27;;;;;;;11.98;3.28;;;;;;;37.10;19.91;101562.41;5035721;28;20052;-71
2022/08/11 14:02:03;;;;;;;8.60;3.45;;;;;;;37.08;19.88;101556.41;5042888;28;20064;-70
2022/08/11 14:04:55;;;;;;;8.27;3.30;;;;;;;37.20;19.93;101548.28;5043881;28;20841;-71
2022/08/11 14:07:33;;;;;;;6.68;3.00;;;;;;;37.11;19.85;101545.88;5040570;28;20052;-72
2022/08/11 14:10:01;;;;;;;6.95;3.15;;;;;;;37.27;20.11;101541.78;5049057;28;20055;-71
2022/08/11 14:15:23;;;;;;;6.03;3.10;;;;;;;37.41;19.74;101538.25;5043923;28;20048;-73
2022/08/11 14:18:02;;;;;;;5.95;2.97;;;;;;;37.48;19.30;101537.53;5049040;28;20049;-72
2022/08/11 14:23:36;;;;;;;6.22;3.33;;;;;;;37.58;19.02;101526.25;5051911;28;20285;-74
2022/08/11 14:26:22;;;;;;;4.90;2.90;;;;;;;37.57;19.01;101533.38;5045872;28;20062;-74
2022/08/11 14:29:11;;;;;;;6.32;3.20;;;;;;;37.60;19.46;101530.13;5045566;28;20189;-73
2022/08/11 14:31:54;;;;;;;7.65;2.75;;;;;;;37.65;19.49;101529.22;5044636;28;20198;-74
2022/08/11 14:34:23;;;;;;;4.70;3.03;;;;;;;37.78;19.17;101526.22;5048785;28;20053;-74
2022/08/11 14:37:04;;;;;;;6.57;3.33;;;;;;;37.80;18.95;101519.88;5040926;28;20049;-74
2022/08/11 14:39:34;;;;;;;6.65;2.70;;;;;;;37.77;19.10;101521.78;5050144;28;20060;-73
2022/08/11 14:47:32;;;;;;;10.43;3.13;;;;;;;37.71;19.02;101521.16;5043906;28;20056;-73
2022/08/11 14:50:01;;;;;;;5.82;2.83;;;;;;;37.69;18.91;101520.94;5044923;28;20056;-74
2022/08/11 14:52:51;;;;;;;8.20;3.00;;;;;;;37.80;18.56;101514.88;5047359;28;20145;-72
2022/08/11 14:58:09;;;;;;;10.68;3.70;;;;;;;37.88;18.55;101507.00;5045769;28;20051;-74
2022/08/11 15:00:37;;;;;;;8.35;3.45;;;;;;;37.80;18.84;101500.44;5040721;28;20044;-73
2022/08/11 15:03:10;;;;;;;7.97;2.80;;;;;;;37.92;18.77;101504.53;5044946;28;20059;-72
2022/08/11 15:05:44;;;;;;;10.60;5.53;;;;;;;37.92;18.64;101498.75;5043756;28;20134;-73
2022/08/11 15:14:02;;;;;;;14.35;6.88;;;;;;;37.76;19.01;101493.47;5049325;28;20063;-73
2022/08/11 15:19:15;;;;;;;4.30;2.75;;;;;;;37.08;19.04;101492.19;5042414;28;20303;-73
2022/08/11 15:24:26;;;;;;;11.23;4.75;;;;;;;36.72;19.51;101492.06;5034084;28;20064;-74
2022/08/11 15:38:10;;;;;;;7.00;3.00;;;;;;;35.85;20.31;101458.16;5042127;28;20052;-74
2022/08/11 15:46:28;;;;;;;8.77;3.45;;;;;;;35.69;20.04;101465.03;5044725;28;20053;-74
2022/08/11 15:49:02;;;;;;;7.70;3.33;;;;;;;35.59;20.24;101464.72;5043748;28;20052;-75
2022/08/11 15:51:39;;;;;;;6.18;3.17;;;;;;;35.50;20.20;101455.75;5044448;28;20182;-74
2022/08/11 15:54:14;;;;;;;9.43;3.33;;;;;;;35.38;20.40;101452.31;5047705;28;20048;-74
2022/08/11 15:56:43;;;;;;;;;;;;;;;35.30;20.42;101453.50;5046759;28;20045;-73
2022/08/11 16:04:44;;;;;;;5.70;2.90;;;;;;;34.97;20.35;101454.91;5044356;28;20053;-71
2022/08/11 16:07:13;;;;;;;8.15;3.45;;;;;;;34.85;20.62;101459.31;5042039;28;20802;-73
2022/08/11 16:10:00;;;;;;;6.45;3.25;;;;;;;34.77;20.90;101463.34;5046026;28;20145;-74
2022/08/11 16:12:31;;;;;;;7.85;4.28;;;;;;;34.70;20.63;101453.28;5039106;28;20052;-75
2022/08/11 16:17:52;;;;;;;7.22;3.15;;;;;;;34.76;20.80;101451.09;5037209;28;20056;-72
2022/08/11 16:20:23;;;;;;;6.97;3.42;;;;;;;34.89;20.83;101445.38;5044473;28;20052;-72
2022/08/11 16:22:53;;;;;;;6.78;3.75;;;;;;;34.88;20.45;101445.91;5043063;28;20048;-73
2022/08/11 16:25:29;;;;;;;7.03;3.42;;;;;;;35.02;20.62;101444.66;5036662;28;20497;-72
2022/08/11 16:28:19;;;;;;;7.95;3.45;;;;;;;35.10;20.44;101446.31;5039746;28;20079;-74
2022/08/11 16:30:47;;;;;;;5.97;3.13;;;;;;;35.09;20.13;101438.25;5044931;28;20057;-74
2022/08/11 16:33:14;;;;;;;4.55;2.95;;;;;;;35.08;20.04;101439.53;5030322;28;20053;-73
2022/08/11 16:38:48;;;;;;;7.05;3.35;;;;;;;34.87;20.58;101444.38;5042314;28;20066;-74
2022/08/11 16:46:58;;;;;;;6.28;3.42;;;;;;;34.77;20.65;101443.22;5043289;28;20091;-73
2022/08/11 16:47:05;;;;;;;6.63;3.20;;;;;;;34.60;20.83;101434.09;5035832;28;20084;-73
2022/08/11 16:49:36;;;;;;;11.95;3.67;;;;;;;34.50;21.09;101436.63;5042460;28;20075;-73
2022/08/11 16:52:06;;;;;;;6.38;3.33;;;;;;;34.39;21.08;101433.16;5047609;28;20844;-72
2022/08/11 16:54:34;;;;;;;8.98;3.38;;;;;;;34.24;21.29;101434.41;5046260;28;20056;-74
2022/08/11 16:59:55;;;;;;;7.70;3.50;;;;;;;34.04;21.77;101426.34;5050693;28;20065;-74
2022/08/11 17:14:19;;;;;;;7.05;3.33;;;;;;;33.42;21.90;101416.22;5049089;28;20040;-75